Time;durP1;ratioP1;P1;durP2;ratioP2;P2;SDS_P1;SDS_P2;PMS_P1;PMS_P2;Temp;Humidity;BMP_temperature;BMP_pressure;BME280_temperature;BME280_humidity;BME280_pressure;Samples;Min_cycle;Max_cycle;Signal;HPM_P1;HPM_P2
2023/08/20 00:04:40;;;;;;;9.93;9.15;;;;;;;;;;10117380;28;20485;-66
2023/08/20 00:09:32;;;;;;;9.95;8.27;;;;;;;;;;10085180;28;20049;-67
2023/08/20 00:14:54;;;;;;;10.13;9.15;;;;;;;;;;10106831;28;20061;-67
2023/08/20 00:19:46;;;;;;;9.48;8.43;;;;;;;;;;10106092;28;20049;-66
2023/08/20 00:24:39;;;;;;;13.82;8.57;;;;;;;;;;10105970;28;20090;-68
2023/08/20 00:29:31;;;;;;;9.18;8.00;;;;;;;;;;10104777;28;20033;-67
2023/08/20 00:34:23;;;;;;;10.32;9.35;;;;;;;;;;10084065;28;20067;-67
2023/08/20 00:39:15;;;;;;;12.18;8.05;;;;;;;;;;10104478;28;20131;-69
2023/08/20 00:44:07;;;;;;;9.57;8.68;;;;;;;;;;10088671;28;20064;-69
2023/08/20 00:48:59;;;;;;;9.60;8.00;;;;;;;;;;10102040;28;20045;-67
2023/08/20 00:53:51;;;;;;;10.88;8.75;;;;;;;;;;10085036;28;20040;-67
2023/08/20 00:58:43;;;;;;;13.32;9.25;;;;;;;;;;10103711;28;20133;-66
2023/08/20 01:03:35;;;;;;;12.70;8.25;;;;;;;;;;10103297;28;20045;-68
2023/08/20 01:08:38;;;;;;;12.38;9.02;;;;;;;;;;10132743;28;20391;-69
2023/08/20 01:13:30;;;;;;;14.93;8.95;;;;;;;;;;10104599;28;20056;-67
2023/08/20 01:18:23;;;;;;;9.48;8.63;;;;;;;;;;10082119;28;20060;-66
2023/08/20 01:23:36;;;;;;;11.70;8.00;;;;;;;;;;10071544;28;20046;-67
2023/08/20 01:28:30;;;;;;;9.85;8.95;;;;;;;;;;10053508;28;20127;-67
2023/08/20 01:33:22;;;;;;;8.75;7.90;;;;;;;;;;10101619;28;20029;-66
2023/08/20 01:38:15;;;;;;;10.63;7.93;;;;;;;;;;10084404;28;20136;-66
2023/08/20 01:43:07;;;;;;;9.45;8.23;;;;;;;;;;10085717;28;20442;-67
2023/08/20 01:47:59;;;;;;;9.00;8.13;;;;;;;;;;10101357;28;20074;-66
2023/08/20 01:52:52;;;;;;;12.35;9.23;;;;;;;;;;10099886;28;20049;-66
2023/08/20 01:57:44;;;;;;;10.80;8.02;;;;;;;;;;10098855;28;20048;-66
2023/08/20 02:02:36;;;;;;;7.80;7.10;;;;;;;;;;10080498;28;20053;-67
2023/08/20 02:07:28;;;;;;;10.75;8.38;;;;;;;;;;10068096;28;20132;-67
2023/08/20 02:12:20;;;;;;;10.55;8.32;;;;;;;;;;10101594;28;20360;-66
2023/08/20 02:17:14;;;;;;;10.18;7.78;;;;;;;;;;10097415;28;20427;-66
2023/08/20 02:22:06;;;;;;;9.25;8.35;;;;;;;;;;10099375;28;20041;-66
2023/08/20 02:26:58;;;;;;;8.75;7.95;;;;;;;;;;10102725;28;20144;-67
2023/08/20 02:31:50;;;;;;;9.00;8.10;;;;;;;;;;10105072;28;20045;-67
2023/08/20 02:36:42;;;;;;;11.07;8.32;;;;;;;;;;10110988;28;20051;-67
2023/08/20 02:41:37;;;;;;;9.50;7.88;;;;;;;;;;10111465;28;20056;-68
2023/08/20 02:46:29;;;;;;;10.30;7.38;;;;;;;;;;10110562;28;20431;-68
2023/08/20 02:51:22;;;;;;;14.73;8.65;;;;;;;;;;10091645;28;20033;-67
2023/08/20 02:56:14;;;;;;;12.30;7.88;;;;;;;;;;10108898;28;20418;-67
2023/08/20 03:01:06;;;;;;;8.85;8.02;;;;;;;;;;10109734;28;20479;-65
2023/08/20 03:05:58;;;;;;;8.63;7.82;;;;;;;;;;10079238;28;20056;-68
2023/08/20 03:10:50;;;;;;;12.30;8.23;;;;;;;;;;10093678;28;20041;-69
2023/08/20 03:15:42;;;;;;;7.95;7.20;;;;;;;;;;10086074;28;20045;-66
2023/08/20 03:20:34;;;;;;;9.95;7.88;;;;;;;;;;10106694;28;20056;-67
2023/08/20 03:25:26;;;;;;;8.98;8.18;;;;;;;;;;10106151;28;20076;-66
2023/08/20 03:30:18;;;;;;;9.20;8.15;;;;;;;;;;10090484;28;20132;-67
2023/08/20 03:35:10;;;;;;;10.55;8.65;;;;;;;;;;10089565;28;20045;-67
2023/08/20 03:40:04;;;;;;;10.55;9.48;;;;;;;;;;10087428;28;20056;-68
2023/08/20 03:44:56;;;;;;;10.52;8.15;;;;;;;;;;10105824;28;20033;-68
2023/08/20 03:49:48;;;;;;;10.50;9.05;;;;;;;;;;10088687;28;20045;-68
2023/08/20 03:54:40;;;;;;;9.60;8.13;;;;;;;;;;10100986;28;20060;-68
2023/08/20 03:59:32;;;;;;;9.30;8.35;;;;;;;;;;10089023;28;20052;-68
2023/08/20 04:04:24;;;;;;;13.85;8.73;;;;;;;;;;10098666;28;20123;-65
2023/08/20 04:09:16;;;;;;;9.30;8.48;;;;;;;;;;10105930;28;20124;-68
2023/08/20 04:14:09;;;;;;;9.27;8.48;;;;;;;;;;10104122;28;20112;-69
2023/08/20 04:19:02;;;;;;;11.23;8.60;;;;;;;;;;10086689;28;20049;-68
2023/08/20 04:23:54;;;;;;;8.40;7.70;;;;;;;;;;10089817;28;20127;-68
2023/08/20 04:28:46;;;;;;;9.57;8.73;;;;;;;;;;10105110;28;20068;-67
2023/08/20 04:33:38;;;;;;;11.18;7.72;;;;;;;;;;10082647;28;20048;-67
2023/08/20 04:38:31;;;;;;;10.32;8.00;;;;;;;;;;10089290;28;20079;-68
2023/08/20 04:43:24;;;;;;;10.70;7.40;;;;;;;;;;10085579;28;20047;-67
2023/08/20 04:48:16;;;;;;;11.43;10.07;;;;;;;;;;10104079;28;20049;-68
2023/08/20 04:53:10;;;;;;;11.95;10.27;;;;;;;;;;10085315;28;20084;-68
2023/08/20 04:58:02;;;;;;;15.45;9.27;;;;;;;;;;10088087;28;20493;-66
2023/08/20 05:02:56;;;;;;;18.58;11.45;;;;;;;;;;10085384;28;20084;-66
2023/08/20 05:07:48;;;;;;;12.82;9.80;;;;;;;;;;10101778;28;20056;-68
2023/08/20 05:12:40;;;;;;;14.02;10.10;;;;;;;;;;10099000;28;20160;-68
2023/08/20 05:17:32;;;;;;;10.45;9.45;;;;;;;;;;10077232;28;20059;-68
2023/08/20 05:22:26;;;;;;;10.18;9.25;;;;;;;;;;10083997;28;20037;-67
2023/08/20 05:27:18;;;;;;;11.57;10.05;;;;;;;;;;10103255;28;20812;-67
2023/08/20 05:32:16;;;;;;;10.70;9.07;;;;;;;;;;10103991;28;20045;-68
2023/08/20 05:37:08;;;;;;;11.70;10.50;;;;;;;;;;10085060;28;20037;-68
2023/08/20 05:42:01;;;;;;;13.05;11.20;;;;;;;;;;10074717;28;20111;-68
2023/08/20 05:46:53;;;;;;;10.77;9.70;;;;;;;;;;10065826;28;20135;-69
2023/08/20 05:51:48;;;;;;;11.48;10.30;;;;;;;;;;10085791;28;20111;-67
2023/08/20 05:56:42;;;;;;;9.73;8.82;;;;;;;;;;10079553;28;20079;-68
2023/08/20 06:01:34;;;;;;;11.52;10.32;;;;;;;;;;10098275;28;20083;-67
2023/08/20 06:06:26;;;;;;;10.55;9.65;;;;;;;;;;10060950;28;20498;-68
2023/08/20 06:11:19;;;;;;;12.15;9.10;;;;;;;;;;10083858;28;20056;-70
2023/08/20 06:16:11;;;;;;;10.25;9.35;;;;;;;;;;10100095;28;20081;-68
2023/08/20 06:21:03;;;;;;;10.43;9.38;;;;;;;;;;10072671;28;20091;-65
2023/08/20 06:25:55;;;;;;;11.15;9.95;;;;;;;;;;10098697;28;20041;-68
2023/08/20 06:30:47;;;;;;;10.80;9.68;;;;;;;;;;10099848;28;20080;-67
2023/08/20 06:35:39;;;;;;;10.88;9.40;;;;;;;;;;10098124;28;20045;-67
2023/08/20 06:40:31;;;;;;;12.80;9.45;;;;;;;;;;10100209;28;20134;-67
2023/08/20 06:45:23;;;;;;;11.55;9.50;;;;;;;;;;10099032;28;20037;-68
2023/08/20 06:50:15;;;;;;;10.65;9.65;;;;;;;;;;10099645;28;20535;-68
2023/08/20 06:55:07;;;;;;;14.70;10.18;;;;;;;;;;10101684;28;20043;-67
2023/08/20 06:59:59;;;;;;;11.68;10.07;;;;;;;;;;10100484;28;20072;-68
2023/08/20 07:04:51;;;;;;;11.73;10.63;;;;;;;;;;10101046;28;20467;-66
2023/08/20 07:09:42;;;;;;;10.70;9.52;;;;;;;;;;10096318;28;20044;-68
2023/08/20 07:14:34;;;;;;;10.43;9.43;;;;;;;;;;10099307;28;20091;-68
2023/08/20 07:19:26;;;;;;;11.10;8.65;;;;;;;;;;10106097;28;20065;-67
2023/08/20 07:24:18;;;;;;;11.45;8.95;;;;;;;;;;10106720;28;20095;-68
2023/08/20 07:29:10;;;;;;;12.25;8.95;;;;;;;;;;10100759;28;20755;-66
2023/08/20 07:34:04;;;;;;;10.93;8.52;;;;;;;;;;10104105;28;20053;-65
2023/08/20 07:39:03;;;;;;;12.15;9.48;;;;;;;;;;10107845;28;20072;-65
2023/08/20 07:43:55;;;;;;;10.38;9.32;;;;;;;;;;10106023;28;20048;-66
2023/08/20 07:48:47;;;;;;;10.52;9.43;;;;;;;;;;10103684;28;20084;-68
2023/08/20 07:53:39;;;;;;;10.55;9.13;;;;;;;;;;10100112;28;20051;-67
2023/08/20 07:58:31;;;;;;;9.68;8.68;;;;;;;;;;10102650;28;20053;-66
2023/08/20 08:03:26;;;;;;;10.98;9.23;;;;;;;;;;10104476;28;20037;-67
2023/08/20 08:08:18;;;;;;;10.23;8.40;;;;;;;;;;10105454;28;20045;-66
2023/08/20 08:13:16;;;;;;;9.13;8.35;;;;;;;;;;10105038;28;20075;-68
2023/08/20 08:18:08;;;;;;;9.03;8.00;;;;;;;;;;10105942;28;20128;-68
2023/08/20 08:23:00;;;;;;;10.60;8.07;;;;;;;;;;10104553;28;20092;-67
2023/08/20 08:27:52;;;;;;;10.73;7.50;;;;;;;;;;10104425;28;20060;-66
2023/08/20 08:32:51;;;;;;;9.77;8.65;;;;;;;;;;10104664;28;20474;-68
2023/08/20 08:37:43;;;;;;;13.38;8.77;;;;;;;;;;10105598;28;20045;-66
2023/08/20 08:42:35;;;;;;;8.85;7.75;;;;;;;;;;10105167;28;20045;-67
2023/08/20 08:47:27;;;;;;;9.30;8.23;;;;;;;;;;10106374;28;20388;-67
2023/08/20 08:52:19;;;;;;;12.02;8.20;;;;;;;;;;10087705;28;20041;-67
2023/08/20 08:57:11;;;;;;;8.73;7.85;;;;;;;;;;10087383;28;20045;-66
2023/08/20 09:02:09;;;;;;;9.95;8.10;;;;;;;;;;10103666;28;20052;-67
2023/08/20 09:07:00;;;;;;;9.73;8.10;;;;;;;;;;10113306;28;20457;-67
2023/08/20 09:11:52;;;;;;;8.75;7.85;;;;;;;;;;10135764;28;20040;-68
2023/08/20 09:16:44;;;;;;;10.48;7.88;;;;;;;;;;10111185;28;20044;-67
2023/08/20 09:21:36;;;;;;;10.10;7.18;;;;;;;;;;10103850;28;20049;-67
2023/08/20 09:26:28;;;;;;;18.73;8.77;;;;;;;;;;10104667;28;20068;-67
2023/08/20 09:31:20;;;;;;;8.23;7.50;;;;;;;;;;10136745;28;20037;-68
2023/08/20 09:36:12;;;;;;;8.65;7.90;;;;;;;;;;10103619;28;20048;-67
2023/08/20 09:41:05;;;;;;;10.10;8.20;;;;;;;;;;10102245;28;20049;-67
2023/08/20 09:46:00;;;;;;;7.88;7.07;;;;;;;;;;10103747;28;20048;-68
2023/08/20 09:50:53;;;;;;;9.45;7.38;;;;;;;;;;10103351;28;20107;-67
2023/08/20 09:55:46;;;;;;;8.23;7.53;;;;;;;;;;10101592;28;20514;-67
2023/08/20 10:00:38;;;;;;;7.70;7.00;;;;;;;;;;10084321;28;20053;-68
2023/08/20 10:05:31;;;;;;;8.05;7.25;;;;;;;;;;10102652;28;20635;-67
2023/08/20 10:10:23;;;;;;;9.65;7.47;;;;;;;;;;10103818;28;20061;-67
2023/08/20 10:15:15;;;;;;;9.32;6.97;;;;;;;;;;10107453;28;20053;-65
2023/08/20 10:20:08;;;;;;;9.00;8.10;;;;;;;;;;10112412;28;20124;-69
2023/08/20 10:25:02;;;;;;;10.73;7.68;;;;;;;;;;10084618;28;20147;-67
2023/08/20 10:29:55;;;;;;;8.18;7.43;;;;;;;;;;10101441;28;20056;-67
2023/08/20 10:34:52;;;;;;;9.40;8.48;;;;;;;;;;10101853;28;20045;-68
2023/08/20 10:39:53;;;;;;;9.17;6.87;;;;;;;;;;10101869;28;20053;-67
2023/08/20 10:45:08;;;;;;;8.20;7.07;;;;;;;;;;10102476;28;20049;-67
2023/08/20 10:50:00;;;;;;;8.57;7.70;;;;;;;;;;10121357;28;20045;-67
2023/08/20 10:54:53;;;;;;;8.32;7.63;;;;;;;;;;10109025;28;20114;-66
2023/08/20 10:59:57;;;;;;;8.45;7.75;;;;;;;;;;10091911;28;20059;-68
2023/08/20 11:04:48;;;;;;;8.63;7.30;;;;;;;;;;10110163;28;20124;-68
2023/08/20 11:09:42;;;;;;;7.97;6.80;;;;;;;;;;10108965;28;20052;-68
2023/08/20 11:14:35;;;;;;;8.63;6.93;;;;;;;;;;10108063;28;20045;-68
2023/08/20 11:19:28;;;;;;;6.55;5.90;;;;;;;;;;10106857;28;20048;-67
2023/08/20 11:24:20;;;;;;;7.47;6.40;;;;;;;;;;10089219;28;20049;-68
2023/08/20 11:29:15;;;;;;;8.65;6.60;;;;;;;;;;10107713;28;20111;-68
2023/08/20 11:34:10;;;;;;;6.90;6.30;;;;;;;;;;10105677;28;20487;-67
2023/08/20 11:39:02;;;;;;;7.00;6.15;;;;;;;;;;10106029;28;20080;-68
2023/08/20 11:43:54;;;;;;;8.10;5.95;;;;;;;;;;10089754;28;20079;-66
2023/08/20 11:49:00;;;;;;;6.57;5.97;;;;;;;;;;10102168;28;20083;-66
2023/08/20 11:53:52;;;;;;;8.70;7.07;;;;;;;;;;10071604;28;20077;-66
2023/08/20 11:58:50;;;;;;;7.25;6.65;;;;;;;;;;10088871;28;20084;-67
2023/08/20 12:03:43;;;;;;;8.00;7.20;;;;;;;;;;10106179;28;20194;-68
2023/08/20 12:08:38;;;;;;;8.73;6.57;;;;;;;;;;10105650;28;20179;-67
2023/08/20 12:13:30;;;;;;;8.48;6.22;;;;;;;;;;10105497;28;20064;-67
2023/08/20 12:18:22;;;;;;;7.55;6.28;;;;;;;;;;10126370;28;20041;-67
2023/08/20 12:23:14;;;;;;;7.55;6.80;;;;;;;;;;10105575;28;20455;-68
2023/08/20 12:28:07;;;;;;;8.15;7.45;;;;;;;;;;10106190;28;20444;-67
2023/08/20 12:32:59;;;;;;;12.13;7.57;;;;;;;;;;10107264;28;20049;-67
2023/08/20 12:37:51;;;;;;;8.07;6.63;;;;;;;;;;10106776;28;20140;-67
2023/08/20 12:42:43;;;;;;;8.63;6.97;;;;;;;;;;10105108;28;20040;-67
2023/08/20 12:47:36;;;;;;;7.70;6.10;;;;;;;;;;10104955;28;20115;-67
2023/08/20 12:52:28;;;;;;;7.65;6.95;;;;;;;;;;10106434;28;20139;-67
2023/08/20 12:57:20;;;;;;;7.10;6.30;;;;;;;;;;10103487;28;20102;-64
2023/08/20 13:02:12;;;;;;;6.60;6.00;;;;;;;;;;10103506;28;20053;-67
2023/08/20 13:07:04;;;;;;;9.77;7.32;;;;;;;;;;10105472;28;20045;-67
2023/08/20 13:11:57;;;;;;;7.35;6.75;;;;;;;;;;10102709;28;20103;-67
2023/08/20 13:16:49;;;;;;;7.78;6.85;;;;;;;;;;10104743;28;20057;-67
2023/08/20 13:21:41;;;;;;;6.57;5.97;;;;;;;;;;10102853;28;20037;-67
2023/08/20 13:26:33;;;;;;;7.28;6.57;;;;;;;;;;10104684;28;20053;-66
2023/08/20 13:31:25;;;;;;;11.63;8.10;;;;;;;;;;10101971;28;20085;-67
2023/08/20 13:36:17;;;;;;;7.00;5.97;;;;;;;;;;10102995;28;20051;-65
2023/08/20 13:41:09;;;;;;;6.93;6.22;;;;;;;;;;10102747;28;20544;-67
2023/08/20 13:46:01;;;;;;;10.90;6.20;;;;;;;;;;10101254;28;20053;-68
2023/08/20 13:50:53;;;;;;;7.90;6.32;;;;;;;;;;10102397;28;20053;-67
2023/08/20 13:55:45;;;;;;;6.13;5.43;;;;;;;;;;10105221;28;20041;-67
2023/08/20 14:00:37;;;;;;;8.32;6.10;;;;;;;;;;10102117;28;20044;-67
2023/08/20 14:05:29;;;;;;;6.72;5.18;;;;;;;;;;10101810;28;20045;-66
2023/08/20 14:10:21;;;;;;;6.05;5.45;;;;;;;;;;10102137;28;20147;-67
2023/08/20 14:15:13;;;;;;;7.63;6.18;;;;;;;;;;10101734;28;20064;-67
2023/08/20 14:20:06;;;;;;;8.40;4.85;;;;;;;;;;10102221;28;20356;-67
2023/08/20 14:24:58;;;;;;;6.28;5.18;;;;;;;;;;10101361;28;20048;-67
2023/08/20 14:29:50;;;;;;;8.10;4.63;;;;;;;;;;10101255;28;20134;-69
2023/08/20 14:34:42;;;;;;;5.80;4.93;;;;;;;;;;10101749;28;20041;-68
2023/08/20 14:39:34;;;;;;;13.95;12.55;;;;;;;;;;10101705;28;20054;-68
2023/08/20 14:44:27;;;;;;;8.88;5.15;;;;;;;;;;10123682;28;20044;-68
2023/08/20 14:49:19;;;;;;;7.60;6.15;;;;;;;;;;10143200;28;20356;-68
2023/08/20 14:54:11;;;;;;;7.35;5.20;;;;;;;;;;10113929;28;20051;-68
2023/08/20 14:59:04;;;;;;;5.68;5.18;;;;;;;;;;10114948;28;20107;-68
2023/08/20 15:03:55;;;;;;;10.02;5.80;;;;;;;;;;10141474;28;20426;-68
2023/08/20 15:08:48;;;;;;;5.97;5.38;;;;;;;;;;10142391;28;20131;-68
2023/08/20 15:13:39;;;;;;;8.07;5.35;;;;;;;;;;10124427;28;20048;-68
2023/08/20 15:18:31;;;;;;;5.55;5.05;;;;;;;;;;10110300;28;20040;-66
2023/08/20 15:23:27;;;;;;;7.28;5.95;;;;;;;;;;10127173;28;20065;-67
2023/08/20 15:28:25;;;;;;;;;;;;;;;;;;10088358;28;20075;-68
2023/08/20 15:33:18;;;;;;;6.63;5.63;;;;;;;;;;10099796;28;19974;-67
2023/08/20 15:38:09;;;;;;;7.50;6.35;;;;;;;;;;10122277;28;20478;-69
2023/08/20 15:43:01;;;;;;;8.15;4.38;;;;;;;;;;10131405;28;20053;-68
2023/08/20 15:47:53;;;;;;;8.07;5.20;;;;;;;;;;10107702;28;20156;-67
2023/08/20 15:52:46;;;;;;;5.38;4.75;;;;;;;;;;10108620;28;20352;-67
2023/08/20 15:57:38;;;;;;;6.53;4.68;;;;;;;;;;10106955;28;20049;-68
2023/08/20 16:02:30;;;;;;;7.38;5.30;;;;;;;;;;10106621;28;20041;-68
2023/08/20 16:07:22;;;;;;;7.80;5.13;;;;;;;;;;10109095;28;20061;-68
2023/08/20 16:12:14;;;;;;;6.85;4.65;;;;;;;;;;10105521;28;20045;-67
2023/08/20 16:17:05;;;;;;;6.45;4.85;;;;;;;;;;10105960;28;20045;-68
2023/08/20 16:21:57;;;;;;;6.13;4.80;;;;;;;;;;10104968;28;20494;-67
2023/08/20 16:26:49;;;;;;;8.98;4.15;;;;;;;;;;10104829;28;20123;-66
2023/08/20 16:31:41;;;;;;;5.40;4.30;;;;;;;;;;10105749;28;20064;-65
2023/08/20 16:36:33;;;;;;;5.00;4.32;;;;;;;;;;10105515;28;20537;-68
2023/08/20 16:41:25;;;;;;;8.82;4.43;;;;;;;;;;10106638;28;20132;-68
2023/08/20 16:46:17;;;;;;;5.05;4.50;;;;;;;;;;10106254;28;20041;-67
2023/08/20 16:51:09;;;;;;;9.27;5.63;;;;;;;;;;10101460;28;20144;-68
2023/08/20 16:56:01;;;;;;;10.90;5.28;;;;;;;;;;10066192;28;20460;-67
2023/08/20 17:00:55;;;;;;;6.95;5.15;;;;;;;;;;10085454;28;20060;-67
2023/08/20 17:05:47;;;;;;;5.18;4.68;;;;;;;;;;10105509;28;20067;-68
2023/08/20 17:10:40;;;;;;;6.18;5.57;;;;;;;;;;10107648;28;20122;-68
2023/08/20 17:15:32;;;;;;;8.02;6.10;;;;;;;;;;10104119;28;20479;-69
2023/08/20 17:20:24;;;;;;;5.82;5.32;;;;;;;;;;10104049;28;20037;-68
2023/08/20 17:25:19;;;;;;;6.53;5.82;;;;;;;;;;10103636;28;20056;-68
2023/08/20 17:30:11;;;;;;;7.35;5.38;;;;;;;;;;10103862;28;20057;-68
2023/08/20 17:35:04;;;;;;;6.68;5.60;;;;;;;;;;10103800;28;20045;-67
2023/08/20 17:39:56;;;;;;;7.55;6.50;;;;;;;;;;10102446;28;20051;-67
2023/08/20 17:44:48;;;;;;;12.93;5.60;;;;;;;;;;10102488;28;20048;-68
2023/08/20 17:49:40;;;;;;;6.65;5.75;;;;;;;;;;10101850;28;20045;-67
2023/08/20 17:54:32;;;;;;;9.25;6.57;;;;;;;;;;10103271;28;20095;-68
2023/08/20 17:59:24;;;;;;;7.82;6.00;;;;;;;;;;10110605;28;20053;-67
2023/08/20 18:04:16;;;;;;;6.70;5.82;;;;;;;;;;10101391;28;20059;-68
2023/08/20 18:09:08;;;;;;;9.15;6.18;;;;;;;;;;10100318;28;20795;-68
2023/08/20 18:14:00;;;;;;;8.85;6.32;;;;;;;;;;10093701;28;20049;-66
2023/08/20 18:18:52;;;;;;;7.22;6.50;;;;;;;;;;10098835;28;20044;-68
2023/08/20 18:23:44;;;;;;;8.15;6.63;;;;;;;;;;10102020;28;20505;-66
2023/08/20 18:28:36;;;;;;;9.27;6.15;;;;;;;;;;10101099;28;20045;-67
2023/08/20 18:33:32;;;;;;;9.07;5.65;;;;;;;;;;10089549;28;20591;-67
2023/08/20 18:38:30;;;;;;;10.10;6.32;;;;;;;;;;10094179;28;20046;-67
2023/08/20 18:43:22;;;;;;;7.63;6.10;;;;;;;;;;10095603;28;20443;-68
2023/08/20 18:48:13;;;;;;;9.82;6.05;;;;;;;;;;10100562;28;20143;-67
2023/08/20 18:53:05;;;;;;;7.18;6.47;;;;;;;;;;10096009;28;20159;-68
2023/08/20 18:57:58;;;;;;;7.20;5.65;;;;;;;;;;10111440;28;20049;-67
2023/08/20 19:02:50;;;;;;;9.77;7.60;;;;;;;;;;10111027;28;20052;-67
2023/08/20 19:07:47;;;;;;;7.00;6.35;;;;;;;;;;10099050;28;20638;-68
2023/08/20 19:12:39;;;;;;;7.78;5.78;;;;;;;;;;10103752;28;20048;-64
2023/08/20 19:17:31;;;;;;;7.05;6.35;;;;;;;;;;10107368;28;20594;-68
2023/08/20 19:22:23;;;;;;;8.02;7.18;;;;;;;;;;10107567;28;20049;-68
2023/08/20 19:27:15;;;;;;;14.07;7.32;;;;;;;;;;10107409;28;20139;-68
2023/08/20 19:32:07;;;;;;;7.28;6.53;;;;;;;;;;10143350;28;20782;-68
2023/08/20 19:37:03;;;;;;;13.35;7.28;;;;;;;;;;10121950;28;20044;-68
2023/08/20 19:41:55;;;;;;;7.07;6.22;;;;;;;;;;10107634;28;20049;-67
2023/08/20 19:46:46;;;;;;;8.05;7.25;;;;;;;;;;10107921;28;20045;-67
2023/08/20 19:51:38;;;;;;;7.75;6.43;;;;;;;;;;10078361;28;20357;-68
2023/08/20 19:56:30;;;;;;;7.50;6.80;;;;;;;;;;10087115;28;20099;-67
2023/08/20 20:01:26;;;;;;;7.80;7.10;;;;;;;;;;10107781;28;20049;-66
2023/08/20 20:06:19;;;;;;;11.50;8.55;;;;;;;;;;10106738;28;20052;-68
2023/08/20 20:11:11;;;;;;;9.77;6.88;;;;;;;;;;10100192;28;20107;-65
2023/08/20 20:16:04;;;;;;;12.88;7.35;;;;;;;;;;10145328;28;20052;-68
2023/08/20 20:20:56;;;;;;;7.00;6.30;;;;;;;;;;10106368;28;20068;-67
2023/08/20 20:25:48;;;;;;;7.97;7.05;;;;;;;;;;10126128;28;20045;-67
2023/08/20 20:30:40;;;;;;;8.68;7.70;;;;;;;;;;10146482;28;20053;-68
2023/08/20 20:35:32;;;;;;;10.55;7.15;;;;;;;;;;10116623;28;20125;-70
2023/08/20 20:40:24;;;;;;;7.43;6.72;;;;;;;;;;10103974;28;20063;-68
2023/08/20 20:45:16;;;;;;;7.70;7.00;;;;;;;;;;10103811;28;20131;-66
2023/08/20 20:50:08;;;;;;;11.35;8.05;;;;;;;;;;10104598;28;20524;-65
2023/08/20 20:55:00;;;;;;;8.63;7.68;;;;;;;;;;10122057;28;20044;-67
2023/08/20 20:59:52;;;;;;;8.38;6.97;;;;;;;;;;10096179;28;20526;-67
2023/08/20 21:04:44;;;;;;;8.55;7.70;;;;;;;;;;10098938;28;20045;-68
2023/08/20 21:09:36;;;;;;;8.48;7.70;;;;;;;;;;10101082;28;20057;-67
2023/08/20 21:14:28;;;;;;;7.97;7.18;;;;;;;;;;10101200;28;20049;-67
2023/08/20 21:19:19;;;;;;;12.10;8.23;;;;;;;;;;10103678;28;20069;-67
2023/08/20 21:24:11;;;;;;;7.95;7.25;;;;;;;;;;10105746;28;20040;-67
2023/08/20 21:29:04;;;;;;;7.90;7.20;;;;;;;;;;10099686;28;20091;-67
2023/08/20 21:33:56;;;;;;;8.27;7.50;;;;;;;;;;10078232;28;20045;-66
2023/08/20 21:38:48;;;;;;;9.18;8.38;;;;;;;;;;10064841;28;20057;-67
2023/08/20 21:43:40;;;;;;;8.95;7.43;;;;;;;;;;10065163;28;20359;-67
2023/08/20 21:48:32;;;;;;;9.80;7.10;;;;;;;;;;10078348;28;20057;-68
2023/08/20 21:53:24;;;;;;;9.43;8.20;;;;;;;;;;10093542;28;20368;-68
2023/08/20 21:58:15;;;;;;;9.65;7.90;;;;;;;;;;10095351;28;20521;-66
2023/08/20 22:03:07;;;;;;;8.18;7.45;;;;;;;;;;10088623;28;20049;-67
2023/08/20 22:07:59;;;;;;;8.40;6.80;;;;;;;;;;10101521;28;20189;-67
2023/08/20 22:12:51;;;;;;;9.60;8.02;;;;;;;;;;10076002;28;20054;-67
2023/08/20 22:17:43;;;;;;;7.70;6.93;;;;;;;;;;9996666;28;20433;-68
2023/08/20 22:22:39;;;;;;;9.35;8.35;;;;;;;;;;10017285;28;20038;-67
2023/08/20 22:27:31;;;;;;;9.20;8.30;;;;;;;;;;10020872;28;20046;-66
2023/08/20 22:32:23;;;;;;;9.45;8.30;;;;;;;;;;10019418;28;20038;-66
2023/08/20 22:37:15;;;;;;;7.78;7.05;;;;;;;;;;10002647;28;20071;-67
2023/08/20 22:42:07;;;;;;;8.27;7.53;;;;;;;;;;10021430;28;20050;-67
2023/08/20 22:46:59;;;;;;;8.00;7.05;;;;;;;;;;10026811;28;20038;-68
2023/08/20 22:51:51;;;;;;;9.88;9.00;;;;;;;;;;10031864;28;20042;-66
2023/08/20 22:56:43;;;;;;;12.05;8.40;;;;;;;;;;10019224;28;20158;-68
2023/08/20 23:01:34;;;;;;;8.68;7.82;;;;;;;;;;9998365;28;20053;-65
2023/08/20 23:06:26;;;;;;;10.63;8.93;;;;;;;;;;9991914;28;20056;-67
2023/08/20 23:11:18;;;;;;;9.00;8.30;;;;;;;;;;9979682;28;20046;-66
2023/08/20 23:16:10;;;;;;;11.75;8.80;;;;;;;;;;9992038;28;20051;-65
2023/08/20 23:21:05;;;;;;;9.43;8.63;;;;;;;;;;9991592;28;20041;-67
2023/08/20 23:25:57;;;;;;;11.10;9.60;;;;;;;;;;9969346;28;20086;-68
2023/08/20 23:30:49;;;;;;;8.85;8.05;;;;;;;;;;9987709;28;20055;-68
2023/08/20 23:35:42;;;;;;;9.80;8.90;;;;;;;;;;9983389;28;20061;-66
2023/08/20 23:40:34;;;;;;;9.35;8.45;;;;;;;;;;9991637;28;20399;-68
2023/08/20 23:45:26;;;;;;;12.00;9.70;;;;;;;;;;9994421;28;20101;-66
2023/08/20 23:50:17;;;;;;;8.70;7.90;;;;;;;;;;9988722;28;20066;-67
2023/08/20 23:55:09;;;;;;;9.80;9.00;;;;;;;;;;9989959;28;20050;-66
